Friday, May 06, 2016
18:46 UTC
  |  Log In   |  Register Free
Airport Search:

Clayton Municipal Airport
(11A)

Clayton Municipal Airport Diagram
No Airport Diagram Available

FAA data valid effective Mar 31 2016 - May 26 2016 (unless otherwise noted).

 
 
 
 
 
 
 
 
 
 
 
 
 
 
Current Aviation Weather for 11A

Weather Summary


Current weather conditions are not available for 11A - The nearest NOAA weather station is at EUF, (18.6 nm NE from 11A)

The most recent METAR observation for 11A was updated at: 12:58 UTC
METAR for 11A is not available. Closest METAR is for KTOI 26.9 nm NE
KTOI  (26.9 nm NE)   (most recent observation was updated at 61:75 UTC)
061753Z AUTO 36011G19KT 10SM CLR 23/07 A2998 RMK AO2 SLP148 T02330072 10233 20106 58011 TSNO

KDHN  (33.8 nm NW)   (most recent observation was updated at 61:75 UTC)
061753Z 36016G26KT 10SM CLR 23/04 A2997 RMK AO2 PKWND 33027/1739 SLP146 T02330044 10233 20100 58016

TAF for 11A is not available.
KTOI  (26.9 nm NE)   (most recent observation was updatred at 61:72 UTC)
061725Z 0618/0718 35012G20KT P6SM SCT060 FM070000 32005KT P6SM SKC


KDHN  (33.8 nm NW)   (most recent observation was updatred at 61:72 UTC)
061720Z 0618/0718 34012G18KT P6SM SKC FM070000 32005KT P6SM SKC FM071500 33007KT P6SM SKC


GlobalAir.com is loading additional information.
 Current Weather at TOI
70.0 F° (21.1 C°)

North winds at 12.7 mph
Pressure:
29.99 in
Humidity:
42%
Wind:
North at 12.7 mph
Dew Point:
46.0 F° (7.8 C°)
Visibility:
10.00 mi
11A NOAA Radar




Find All Airport Services Find A Hotel Find A Rental Car Find A Golf Course Find A Restaurant $100 Hamburger



Airport Weather Forecast for 11A

Translated METAR for KEUF (1758 UTC)
METAR:
KEUF 061758Z AUTO 35009G14KT 10SM SCT065 23/06 A2993 RMK AO2 SLP132 T02280056 10228 20117 58012 $
Conditions at:
KEUF (Weedon Field, AL) observed 1758 UTC 06 May 2016
Temperature:
23°C (73.4°F)
Dewpoint:
6°C (42.8°F) [RH = 33.3]
Pressure:
29.93 inches Hg (1013.5 mb)
pressure at sea level is 132 in Hg
Winds:
from the N (350 degrees) at 10.4 mph (9 knots: 4.6 m/s)
gusting to 16.1 mph (14 knots: 7.2 m/s)
Visibility:
10 mile(s)
Ceiling:
at least 12,000 feet AGL
Clouds:
Scattered Clouds at 6,500 feet AGL
Remarks:
site is un-manned
SOME DATA ABOVE MAY BE INACCURATE!!!
"$" is an indication the sensor requires maintenance
site is automated and HAS a precipitation sensor

Translated TAF for KTOI (Troy Muni Airport At N Kenneth Campbell Field, AL) (1725 UTC)
TAF text:
KTOI 061725Z 0618/0718 35012G20KT P6SM SCT060
Forecast period:
Friday May 06 2016 18:00 UTC - Saturday May 07 2016 18:00 UTC
Forecast type:
FROM: standard forecast or significant change
Winds:
from the N (350 degrees) at 13.8 mph (12 knots: 6.2 m/s)
gusting to 23 mph (20 knots: 10.3 m/s)
Visibility:
6 or more mile(s) (9.7+ km)
Ceiling:
at least 12,000 feet AGL
Clouds:
Scattered Clouds at 6,000 feet AGL
Weather:
no significant weather observed at this time
TAF text:
FM070000 32005KT P6SM SKC
Forecast period:
Saturday May 07 2016 00:00 UTC - Saturday May 07 2016 18:00 UTC
Forecast type:
FROM: standard forecast or significant change
Winds:
from the NW (320 degrees) at 5.8 mph (5 knots: 2.6 m/s)
Visibility:
6 or more mile(s) (9.7+ km)
Ceiling:
at least 12,000 feet AGL
Clouds:
Clear Skies
Weather:
no significant weather observed at this time
FBO's on the Field
FBO Company Facility Photos Services Transportation Aviation Fuel Prices: Prices include tax
Catering Weather Repair Courtesy Rental Type 100LL JetA JetA+ MOGAS 8087
 
Add another FBO Facility Photos Catering Weather Repair Courtesy Rental Type 100LL JetA JetA+ MOGAS 8087
Services Transportation Aviation Fuel Prices: Prices include tax
There are no FBO's currently reporting fuel at 11A. List your FBO now


model-print
model-print
model-print
model-print